Terminal Aerodrome Forecast
Issued by NWS

Home | Current Version | Previous Version | Text Only | Print | Product List | Glossary On
Versions: 1 2 3 4 5 6 7 8 9 10 11 12 13 14
148
FTUS45 KRIW 062323
TAFJAC
TAF
KJAC 062323Z 0700/0724 20013G21KT P6SM VCSH SCT025 BKN040
     FM070900 18011KT P6SM SCT015 BKN035
     FM071900 VRB06KT P6SM SCT050 BKN070
      AMD LTD TO CLD VIS AND WIND=

USA.gov is the U.S. government's official web portal to all federal, state and local government web resources and services.